sensor_id;sensor_type;location;lat;lon;timestamp;pressure;altitude;pressure_sealevel;temperature;humidity
28167;BME280;15455;53.376;-6.262;2022-07-10T00:01:11;102829.88;;;16.12;100.00
28167;BME280;15455;53.376;-6.262;2022-07-10T00:03:56;102829.78;;;16.04;100.00
28167;BME280;15455;53.376;-6.262;2022-07-10T00:06:42;102827.09;;;15.96;100.00
28167;BME280;15455;53.376;-6.262;2022-07-10T00:09:31;102830.53;;;15.86;100.00
28167;BME280;15455;53.376;-6.262;2022-07-10T00:12:17;102833.00;;;15.75;100.00
28167;BME280;15455;53.376;-6.262;2022-07-10T00:15:06;102822.38;;;15.63;100.00
28167;BME280;15455;53.376;-6.262;2022-07-10T00:17:51;102826.69;;;15.56;100.00
28167;BME280;15455;53.376;-6.262;2022-07-10T00:20:39;102825.69;;;15.46;100.00
28167;BME280;15455;53.376;-6.262;2022-07-10T00:23:25;102820.34;;;15.37;100.00
28167;BME280;15455;53.376;-6.262;2022-07-10T00:26:10;102823.75;;;15.27;100.00
28167;BME280;15455;53.376;-6.262;2022-07-10T00:28:56;102816.56;;;15.14;100.00
28167;BME280;15455;53.376;-6.262;2022-07-10T00:31:41;102816.41;;;15.01;100.00
28167;BME280;15455;53.376;-6.262;2022-07-10T00:34:27;102821.50;;;14.89;100.00
28167;BME280;15455;53.376;-6.262;2022-07-10T00:37:12;102820.44;;;14.73;100.00
28167;BME280;15455;53.376;-6.262;2022-07-10T00:39:58;102819.34;;;14.60;100.00
28167;BME280;15455;53.376;-6.262;2022-07-10T00:42:44;102814.94;;;14.57;100.00
28167;BME280;15455;53.376;-6.262;2022-07-10T00:45:29;102815.75;;;14.53;100.00
28167;BME280;15455;53.376;-6.262;2022-07-10T00:48:15;102819.97;;;14.42;100.00
28167;BME280;15455;53.376;-6.262;2022-07-10T00:51:01;102810.22;;;14.35;100.00
28167;BME280;15455;53.376;-6.262;2022-07-10T00:53:48;102814.44;;;14.25;100.00
28167;BME280;15455;53.376;-6.262;2022-07-10T00:56:33;102805.53;;;14.15;100.00
28167;BME280;15455;53.376;-6.262;2022-07-10T00:59:19;102795.88;;;14.11;100.00
28167;BME280;15455;53.376;-6.262;2022-07-10T01:02:05;102794.91;;;14.06;100.00
28167;BME280;15455;53.376;-6.262;2022-07-10T01:04:50;102796.44;;;13.93;100.00
28167;BME280;15455;53.376;-6.262;2022-07-10T01:07:37;102790.09;;;13.80;100.00
28167;BME280;15455;53.376;-6.262;2022-07-10T01:10:22;102784.56;;;13.65;100.00
28167;BME280;15455;53.376;-6.262;2022-07-10T01:13:08;102784.50;;;13.60;100.00
28167;BME280;15455;53.376;-6.262;2022-07-10T01:15:53;102783.53;;;13.53;100.00
28167;BME280;15455;53.376;-6.262;2022-07-10T01:18:39;102785.00;;;13.39;100.00
28167;BME280;15455;53.376;-6.262;2022-07-10T01:21:28;102785.69;;;13.30;100.00
28167;BME280;15455;53.376;-6.262;2022-07-10T01:24:14;102778.31;;;13.11;100.00
28167;BME280;15455;53.376;-6.262;2022-07-10T01:26:59;102767.50;;;12.95;100.00
28167;BME280;15455;53.376;-6.262;2022-07-10T01:29:45;102767.41;;;12.89;100.00
28167;BME280;15455;53.376;-6.262;2022-07-10T01:32:40;102765.53;;;12.83;100.00
28167;BME280;15455;53.376;-6.262;2022-07-10T01:35:26;102761.94;;;12.78;100.00
28167;BME280;15455;53.376;-6.262;2022-07-10T01:38:11;102764.28;;;12.66;100.00
28167;BME280;15455;53.376;-6.262;2022-07-10T01:40:56;102759.75;;;12.57;100.00
28167;BME280;15455;53.376;-6.262;2022-07-10T01:43:42;102753.63;;;12.57;100.00
28167;BME280;15455;53.376;-6.262;2022-07-10T01:46:30;102750.81;;;12.49;100.00
28167;BME280;15455;53.376;-6.262;2022-07-10T01:49:15;102746.09;;;12.32;100.00
28167;BME280;15455;53.376;-6.262;2022-07-10T01:52:01;102748.59;;;12.26;100.00
28167;BME280;15455;53.376;-6.262;2022-07-10T01:54:47;102748.41;;;12.19;100.00
28167;BME280;15455;53.376;-6.262;2022-07-10T01:57:33;102756.25;;;12.19;100.00
28167;BME280;15455;53.376;-6.262;2022-07-10T02:00:19;102745.72;;;12.15;100.00
28167;BME280;15455;53.376;-6.262;2022-07-10T02:03:05;102748.31;;;12.14;100.00
28167;BME280;15455;53.376;-6.262;2022-07-10T02:06:09;102752.69;;;12.15;100.00
28167;BME280;15455;53.376;-6.262;2022-07-10T02:08:54;102751.97;;;12.21;100.00
28167;BME280;15455;53.376;-6.262;2022-07-10T02:11:39;102748.78;;;12.36;100.00
28167;BME280;15455;53.376;-6.262;2022-07-10T02:14:25;102755.28;;;12.53;100.00
28167;BME280;15455;53.376;-6.262;2022-07-10T02:17:10;102744.06;;;12.59;100.00
28167;BME280;15455;53.376;-6.262;2022-07-10T02:19:56;102743.28;;;12.63;100.00
28167;BME280;15455;53.376;-6.262;2022-07-10T02:22:42;102740.84;;;12.72;100.00
28167;BME280;15455;53.376;-6.262;2022-07-10T02:25:27;102740.28;;;12.87;100.00
28167;BME280;15455;53.376;-6.262;2022-07-10T02:28:13;102744.78;;;12.93;100.00
28167;BME280;15455;53.376;-6.262;2022-07-10T02:30:58;102746.66;;;13.00;100.00
28167;BME280;15455;53.376;-6.262;2022-07-10T02:33:44;102745.22;;;13.16;100.00
28167;BME280;15455;53.376;-6.262;2022-07-10T02:36:29;102748.06;;;13.30;100.00
28167;BME280;15455;53.376;-6.262;2022-07-10T02:39:14;102740.31;;;13.34;100.00
28167;BME280;15455;53.376;-6.262;2022-07-10T02:42:00;102751.13;;;13.51;100.00
28167;BME280;15455;53.376;-6.262;2022-07-10T02:44:45;102741.59;;;13.57;100.00
28167;BME280;15455;53.376;-6.262;2022-07-10T02:47:31;102741.00;;;13.75;100.00
28167;BME280;15455;53.376;-6.262;2022-07-10T02:50:17;102744.69;;;13.86;100.00
28167;BME280;15455;53.376;-6.262;2022-07-10T02:53:02;102744.69;;;13.84;100.00
28167;BME280;15455;53.376;-6.262;2022-07-10T02:55:48;102745.53;;;13.83;100.00
28167;BME280;15455;53.376;-6.262;2022-07-10T02:58:34;102741.16;;;13.82;100.00
28167;BME280;15455;53.376;-6.262;2022-07-10T03:01:20;102736.81;;;13.86;100.00
28167;BME280;15455;53.376;-6.262;2022-07-10T03:04:06;102730.03;;;13.99;100.00
28167;BME280;15455;53.376;-6.262;2022-07-10T03:06:52;102740.72;;;14.11;100.00
28167;BME280;15455;53.376;-6.262;2022-07-10T03:09:38;102727.50;;;14.06;100.00
28167;BME280;15455;53.376;-6.262;2022-07-10T03:12:23;102725.78;;;14.07;100.00
28167;BME280;15455;53.376;-6.262;2022-07-10T03:15:09;102723.25;;;14.13;100.00
28167;BME280;15455;53.376;-6.262;2022-07-10T03:17:55;102722.41;;;14.14;100.00
28167;BME280;15455;53.376;-6.262;2022-07-10T03:20:40;102720.63;;;14.15;100.00
28167;BME280;15455;53.376;-6.262;2022-07-10T03:23:26;102712.84;;;14.21;100.00
28167;BME280;15455;53.376;-6.262;2022-07-10T03:26:11;102707.59;;;14.22;100.00
28167;BME280;15455;53.376;-6.262;2022-07-10T03:28:57;102711.16;;;14.26;100.00
28167;BME280;15455;53.376;-6.262;2022-07-10T03:31:42;102702.50;;;14.32;100.00
28167;BME280;15455;53.376;-6.262;2022-07-10T03:34:28;102705.25;;;14.44;100.00
28167;BME280;15455;53.376;-6.262;2022-07-10T03:37:14;102711.50;;;14.52;100.00
28167;BME280;15455;53.376;-6.262;2022-07-10T03:39:59;102699.34;;;14.59;100.00
28167;BME280;15455;53.376;-6.262;2022-07-10T03:42:44;102707.31;;;14.65;100.00
28167;BME280;15455;53.376;-6.262;2022-07-10T03:45:30;102696.84;;;14.68;100.00
28167;BME280;15455;53.376;-6.262;2022-07-10T03:48:16;102702.06;;;14.65;100.00
28167;BME280;15455;53.376;-6.262;2022-07-10T03:51:02;102699.50;;;14.70;100.00
28167;BME280;15455;53.376;-6.262;2022-07-10T03:53:47;102699.53;;;14.73;100.00
28167;BME280;15455;53.376;-6.262;2022-07-10T03:56:33;102696.91;;;14.74;100.00
28167;BME280;15455;53.376;-6.262;2022-07-10T03:59:37;102696.88;;;14.70;100.00
28167;BME280;15455;53.376;-6.262;2022-07-10T04:02:23;102699.56;;;14.76;100.00
28167;BME280;15455;53.376;-6.262;2022-07-10T04:05:09;102698.72;;;14.79;100.00
28167;BME280;15455;53.376;-6.262;2022-07-10T04:07:56;102703.13;;;14.80;100.00
28167;BME280;15455;53.376;-6.262;2022-07-10T04:10:42;102697.00;;;14.79;100.00
28167;BME280;15455;53.376;-6.262;2022-07-10T04:13:27;102692.56;;;14.76;100.00
28167;BME280;15455;53.376;-6.262;2022-07-10T04:16:13;102693.47;;;14.79;100.00
28167;BME280;15455;53.376;-6.262;2022-07-10T04:18:59;102699.63;;;14.79;100.00
28167;BME280;15455;53.376;-6.262;2022-07-10T04:21:44;102698.72;;;14.79;100.00
28167;BME280;15455;53.376;-6.262;2022-07-10T04:24:29;102697.81;;;14.76;100.00
28167;BME280;15455;53.376;-6.262;2022-07-10T04:27:15;102692.56;;;14.75;100.00
28167;BME280;15455;53.376;-6.262;2022-07-10T04:30:03;102696.91;;;14.74;100.00
28167;BME280;15455;53.376;-6.262;2022-07-10T04:32:48;102694.25;;;14.73;100.00
28167;BME280;15455;53.376;-6.262;2022-07-10T04:35:34;102699.53;;;14.73;100.00
28167;BME280;15455;53.376;-6.262;2022-07-10T04:38:19;102689.91;;;14.73;100.00
28167;BME280;15455;53.376;-6.262;2022-07-10T04:41:05;102692.56;;;14.75;100.00
28167;BME280;15455;53.376;-6.262;2022-07-10T04:43:50;102686.41;;;14.76;100.00
28167;BME280;15455;53.376;-6.262;2022-07-10T04:46:36;102690.81;;;14.79;100.00
28167;BME280;15455;53.376;-6.262;2022-07-10T04:49:22;102689.97;;;14.78;100.00
28167;BME280;15455;53.376;-6.262;2022-07-10T04:52:07;102688.22;;;14.80;100.00
28167;BME280;15455;53.376;-6.262;2022-07-10T04:54:53;102694.41;;;14.85;100.00
28167;BME280;15455;53.376;-6.262;2022-07-10T04:57:38;102686.53;;;14.87;100.00
28167;BME280;15455;53.376;-6.262;2022-07-10T05:00:24;102687.44;;;14.90;100.00
28167;BME280;15455;53.376;-6.262;2022-07-10T05:03:10;102683.97;;;14.94;100.00
28167;BME280;15455;53.376;-6.262;2022-07-10T05:05:56;102688.41;;;14.99;100.00
28167;BME280;15455;53.376;-6.262;2022-07-10T05:08:41;102686.72;;;15.02;100.00
28167;BME280;15455;53.376;-6.262;2022-07-10T05:11:27;102694.63;;;15.04;100.00
28167;BME280;15455;53.376;-6.262;2022-07-10T05:14:12;102689.34;;;15.04;100.00
28167;BME280;15455;53.376;-6.262;2022-07-10T05:16:58;102684.94;;;15.01;100.00
28167;BME280;15455;53.376;-6.262;2022-07-10T05:19:44;102686.75;;;15.05;100.00
28167;BME280;15455;53.376;-6.262;2022-07-10T05:22:29;102685.00;;;15.09;100.00
28167;BME280;15455;53.376;-6.262;2022-07-10T05:25:15;102684.19;;;15.13;100.00
28167;BME280;15455;53.376;-6.262;2022-07-10T05:28:01;102677.25;;;15.20;100.00
28167;BME280;15455;53.376;-6.262;2022-07-10T05:30:46;102681.66;;;15.24;100.00
28167;BME280;15455;53.376;-6.262;2022-07-10T05:33:34;102679.94;;;15.27;100.00
28167;BME280;15455;53.376;-6.262;2022-07-10T05:36:19;102679.03;;;15.25;100.00
28167;BME280;15455;53.376;-6.262;2022-07-10T05:39:05;102676.44;;;15.28;100.00
28167;BME280;15455;53.376;-6.262;2022-07-10T05:41:51;102679.09;;;15.33;100.00
28167;BME280;15455;53.376;-6.262;2022-07-10T05:44:36;102675.63;;;15.37;100.00
28167;BME280;15455;53.376;-6.262;2022-07-10T05:47:21;102679.19;;;15.44;100.00
28167;BME280;15455;53.376;-6.262;2022-07-10T05:50:07;102677.50;;;15.51;100.00
28167;BME280;15455;53.376;-6.262;2022-07-10T05:52:53;102682.78;;;15.57;100.00
28167;BME280;15455;53.376;-6.262;2022-07-10T05:55:39;102672.34;;;15.61;100.00
28167;BME280;15455;53.376;-6.262;2022-07-10T05:58:24;102666.19;;;15.66;100.00
28167;BME280;15455;53.376;-6.262;2022-07-10T06:01:09;102669.75;;;15.72;100.00
28167;BME280;15455;53.376;-6.262;2022-07-10T06:03:55;102672.41;;;15.77;100.00
28167;BME280;15455;53.376;-6.262;2022-07-10T06:06:41;102668.97;;;15.79;100.00
28167;BME280;15455;53.376;-6.262;2022-07-10T06:09:27;102676.00;;;15.80;100.00
28167;BME280;15455;53.376;-6.262;2022-07-10T06:12:12;102674.22;;;15.79;100.00
28167;BME280;15455;53.376;-6.262;2022-07-10T06:15:00;102669.81;;;15.78;100.00
28167;BME280;15455;53.376;-6.262;2022-07-10T06:17:45;102675.09;;;15.78;100.00
28167;BME280;15455;53.376;-6.262;2022-07-10T06:20:31;102673.31;;;15.77;100.00
28167;BME280;15455;53.376;-6.262;2022-07-10T06:23:16;102676.88;;;15.83;100.00
28167;BME280;15455;53.376;-6.262;2022-07-10T06:26:02;102679.53;;;15.84;100.00
28167;BME280;15455;53.376;-6.262;2022-07-10T06:28:47;102676.03;;;15.85;100.00
28167;BME280;15455;53.376;-6.262;2022-07-10T06:31:33;102672.53;;;15.88;100.00
28167;BME280;15455;53.376;-6.262;2022-07-10T06:34:18;102669.00;;;15.87;100.00
28167;BME280;15455;53.376;-6.262;2022-07-10T06:37:05;102669.06;;;15.90;100.00
28167;BME280;15455;53.376;-6.262;2022-07-10T06:39:51;102668.16;;;15.93;100.00
28167;BME280;15455;53.376;-6.262;2022-07-10T06:42:36;102666.44;;;15.98;100.00
28167;BME280;15455;53.376;-6.262;2022-07-10T06:45:29;102664.69;;;16.02;100.00
28167;BME280;15455;53.376;-6.262;2022-07-10T06:48:15;102667.38;;;16.05;100.00
28167;BME280;15455;53.376;-6.262;2022-07-10T06:51:01;102663.00;;;16.08;100.00
28167;BME280;15455;53.376;-6.262;2022-07-10T06:53:47;102659.50;;;16.14;100.00
28167;BME280;15455;53.376;-6.262;2022-07-10T06:56:33;102662.16;;;16.17;100.00
28167;BME280;15455;53.376;-6.262;2022-07-10T06:59:18;102663.94;;;16.21;100.00
28167;BME280;15455;53.376;-6.262;2022-07-10T07:02:04;102661.31;;;16.26;100.00
28167;BME280;15455;53.376;-6.262;2022-07-10T07:04:50;102661.34;;;16.30;100.00
28167;BME280;15455;53.376;-6.262;2022-07-10T07:07:35;102661.38;;;16.37;100.00
28167;BME280;15455;53.376;-6.262;2022-07-10T07:10:21;102661.41;;;16.44;100.00
28167;BME280;15455;53.376;-6.262;2022-07-10T07:13:06;102659.69;;;16.54;100.00
28167;BME280;15455;53.376;-6.262;2022-07-10T07:15:54;102662.34;;;16.59;100.00
28167;BME280;15455;53.376;-6.262;2022-07-10T07:18:46;102657.97;;;16.65;100.00
28167;BME280;15455;53.376;-6.262;2022-07-10T07:21:37;102657.09;;;16.71;100.00
28167;BME280;15455;53.376;-6.262;2022-07-10T07:24:41;102652.75;;;16.87;100.00
28167;BME280;15455;53.376;-6.262;2022-07-10T07:27:27;102655.41;;;16.99;100.00
28167;BME280;15455;53.376;-6.262;2022-07-10T07:30:14;102650.13;;;17.07;100.00
28167;BME280;15455;53.376;-6.262;2022-07-10T07:33:00;102658.06;;;17.21;100.00
28167;BME280;15455;53.376;-6.262;2022-07-10T07:35:46;102648.41;;;17.31;100.00
28167;BME280;15455;53.376;-6.262;2022-07-10T07:38:31;102639.59;;;17.41;100.00
28167;BME280;15455;53.376;-6.262;2022-07-10T07:41:17;102647.50;;;17.50;100.00
28167;BME280;15455;53.376;-6.262;2022-07-10T07:44:02;102646.63;;;17.61;100.00
28167;BME280;15455;53.376;-6.262;2022-07-10T07:46:47;102638.69;;;17.70;100.00
28167;BME280;15455;53.376;-6.262;2022-07-10T07:49:33;102643.97;;;17.82;100.00
28167;BME280;15455;53.376;-6.262;2022-07-10T07:52:19;102644.81;;;17.94;100.00
28167;BME280;15455;53.376;-6.262;2022-07-10T07:55:04;102646.56;;;18.02;100.00
28167;BME280;15455;53.376;-6.262;2022-07-10T07:57:51;102640.34;;;18.11;100.00
28167;BME280;15455;53.376;-6.262;2022-07-10T08:00:38;102639.44;;;18.18;100.00
28167;BME280;15455;53.376;-6.262;2022-07-10T08:03:23;102642.94;;;18.28;100.00
28167;BME280;15455;53.376;-6.262;2022-07-10T08:06:29;102633.16;;;18.44;100.00
28167;BME280;15455;53.376;-6.262;2022-07-10T08:09:14;102633.09;;;18.60;100.00
28167;BME280;15455;53.376;-6.262;2022-07-10T08:12:00;102633.03;;;18.69;100.00
28167;BME280;15455;53.376;-6.262;2022-07-10T08:14:46;102631.16;;;18.85;100.00
28167;BME280;15455;53.376;-6.262;2022-07-10T08:17:31;102631.13;;;18.97;100.00
28167;BME280;15455;53.376;-6.262;2022-07-10T08:20:17;102625.72;;;19.08;100.00
28167;BME280;15455;53.376;-6.262;2022-07-10T08:23:02;102622.94;;;19.25;100.00
28167;BME280;15455;53.376;-6.262;2022-07-10T08:25:48;102624.63;;;19.38;100.00
28167;BME280;15455;53.376;-6.262;2022-07-10T08:28:33;102613.94;;;19.46;100.00
28167;BME280;15455;53.376;-6.262;2022-07-10T08:31:19;102617.38;;;19.53;100.00
28167;BME280;15455;53.376;-6.262;2022-07-10T08:34:05;102609.41;;;19.57;100.00
28167;BME280;15455;53.376;-6.262;2022-07-10T08:36:50;102610.28;;;19.58;100.00
28167;BME280;15455;53.376;-6.262;2022-07-10T08:39:36;102615.53;;;19.61;100.00
28167;BME280;15455;53.376;-6.262;2022-07-10T08:42:24;102615.44;;;19.73;100.00
28167;BME280;15455;53.376;-6.262;2022-07-10T08:45:10;102611.78;;;19.85;100.00
28167;BME280;15455;53.376;-6.262;2022-07-10T08:48:01;102618.75;;;19.94;100.00
28167;BME280;15455;53.376;-6.262;2022-07-10T08:50:51;102617.78;;;20.01;100.00
28167;BME280;15455;53.376;-6.262;2022-07-10T08:53:39;102619.56;;;20.02;100.00
28167;BME280;15455;53.376;-6.262;2022-07-10T08:56:24;102610.84;;;19.91;96.57
28167;BME280;15455;53.376;-6.262;2022-07-10T08:59:12;102605.16;;;19.39;96.26
28167;BME280;15455;53.376;-6.262;2022-07-10T09:01:59;102607.09;;;19.23;97.08
28167;BME280;15455;53.376;-6.262;2022-07-10T09:04:45;102605.22;;;19.35;100.00
28167;BME280;15455;53.376;-6.262;2022-07-10T09:07:35;102602.44;;;19.50;100.00
28167;BME280;15455;53.376;-6.262;2022-07-10T09:10:25;102605.88;;;19.57;99.78
28167;BME280;15455;53.376;-6.262;2022-07-10T09:13:10;102604.06;;;19.62;99.26
28167;BME280;15455;53.376;-6.262;2022-07-10T09:15:56;102602.38;;;19.55;98.12
28167;BME280;15455;53.376;-6.262;2022-07-10T09:18:42;102597.16;;;19.49;97.25
28167;BME280;15455;53.376;-6.262;2022-07-10T09:21:32;102588.44;;;19.37;97.39
28167;BME280;15455;53.376;-6.262;2022-07-10T09:24:19;102590.19;;;19.37;97.43
28167;BME280;15455;53.376;-6.262;2022-07-10T09:27:06;102584.97;;;19.29;97.63
28167;BME280;15455;53.376;-6.262;2022-07-10T09:29:52;102574.50;;;19.15;96.92
28167;BME280;15455;53.376;-6.262;2022-07-10T09:32:43;102579.00;;;19.08;98.24
28167;BME280;15455;53.376;-6.262;2022-07-10T09:35:29;102572.81;;;19.05;98.58
28167;BME280;15455;53.376;-6.262;2022-07-10T09:41:29;102565.91;;;18.91;100.00
28167;BME280;15455;53.376;-6.262;2022-07-10T09:44:15;102565.91;;;18.90;100.00
28167;BME280;15455;53.376;-6.262;2022-07-10T09:47:01;102563.28;;;18.88;100.00
28167;BME280;15455;53.376;-6.262;2022-07-10T09:49:46;102565.06;;;18.82;99.83
28167;BME280;15455;53.376;-6.262;2022-07-10T09:52:33;102559.78;;;18.79;99.46
28167;BME280;15455;53.376;-6.262;2022-07-10T09:55:21;102553.56;;;18.86;100.00
28167;BME280;15455;53.376;-6.262;2022-07-10T09:58:08;102551.78;;;18.92;100.00
28167;BME280;15455;53.376;-6.262;2022-07-10T10:00:55;102548.25;;;18.90;99.34
28167;BME280;15455;53.376;-6.262;2022-07-10T10:03:43;102543.84;;;18.94;100.00
28167;BME280;15455;53.376;-6.262;2022-07-10T10:06:30;102540.28;;;18.98;100.00
28167;BME280;15455;53.376;-6.262;2022-07-10T10:09:37;102540.22;;;19.03;99.48
28167;BME280;15455;53.376;-6.262;2022-07-10T10:12:44;102550.72;;;19.12;99.14
28167;BME280;15455;53.376;-6.262;2022-07-10T10:15:33;102543.66;;;19.14;97.53
28167;BME280;15455;53.376;-6.262;2022-07-10T10:18:22;102542.69;;;19.21;98.26
28167;BME280;15455;53.376;-6.262;2022-07-10T10:21:07;102531.19;;;19.27;98.23
28167;BME280;15455;53.376;-6.262;2022-07-10T10:23:55;102535.56;;;19.31;98.00
28167;BME280;15455;53.376;-6.262;2022-07-10T10:26:41;102528.47;;;19.33;97.24
28167;BME280;15455;53.376;-6.262;2022-07-10T10:29:29;102524.91;;;19.36;95.61
28167;BME280;15455;53.376;-6.262;2022-07-10T10:32:15;102532.72;;;19.47;97.56
28167;BME280;15455;53.376;-6.262;2022-07-10T10:35:02;102534.41;;;19.54;97.57
28167;BME280;15455;53.376;-6.262;2022-07-10T10:37:50;102530.88;;;19.53;96.41
28167;BME280;15455;53.376;-6.262;2022-07-10T10:40:36;102537.97;;;19.50;92.05
28167;BME280;15455;53.376;-6.262;2022-07-10T10:43:23;102531.78;;;19.52;94.43
28167;BME280;15455;53.376;-6.262;2022-07-10T10:46:24;102535.22;;;19.60;94.81
28167;BME280;15455;53.376;-6.262;2022-07-10T10:49:10;102534.31;;;19.60;92.08
28167;BME280;15455;53.376;-6.262;2022-07-10T10:52:11;102521.00;;;19.69;92.55
28167;BME280;15455;53.376;-6.262;2022-07-10T10:55:02;102527.84;;;19.87;95.01
28167;BME280;15455;53.376;-6.262;2022-07-10T10:57:49;102518.91;;;19.98;93.43
28167;BME280;15455;53.376;-6.262;2022-07-10T11:00:36;102523.22;;;20.03;91.48
28167;BME280;15455;53.376;-6.262;2022-07-10T11:03:23;102517.78;;;20.14;90.89
28167;BME280;15455;53.376;-6.262;2022-07-10T11:06:12;102518.59;;;20.21;91.43
28167;BME280;15455;53.376;-6.262;2022-07-10T11:08:59;102524.69;;;20.26;90.38
28167;BME280;15455;53.376;-6.262;2022-07-10T11:11:57;102526.34;;;20.33;89.38
28167;BME280;15455;53.376;-6.262;2022-07-10T11:14:46;102516.56;;;20.37;90.40
28167;BME280;15455;53.376;-6.262;2022-07-10T11:17:34;102511.28;;;20.37;87.97
28167;BME280;15455;53.376;-6.262;2022-07-10T11:20:20;102515.63;;;20.39;89.09
28167;BME280;15455;53.376;-6.262;2022-07-10T11:26:10;102516.09;;;20.66;90.81
28167;BME280;15455;53.376;-6.262;2022-07-10T11:29:02;102509.03;;;20.65;88.22
28167;BME280;15455;53.376;-6.262;2022-07-10T11:31:54;102507.97;;;20.77;87.96
28167;BME280;15455;53.376;-6.262;2022-07-10T11:34:39;102506.06;;;20.87;86.94
28167;BME280;15455;53.376;-6.262;2022-07-10T11:37:25;102499.66;;;20.98;84.37
28167;BME280;15455;53.376;-6.262;2022-07-10T11:40:15;102490.19;;;21.32;87.98
28167;BME280;15455;53.376;-6.262;2022-07-10T11:43:00;102492.66;;;21.41;80.94
28167;BME280;15455;53.376;-6.262;2022-07-10T11:45:50;102489.44;;;21.69;82.48
28167;BME280;15455;53.376;-6.262;2022-07-10T11:48:38;102487.38;;;21.83;79.05
28167;BME280;15455;53.376;-6.262;2022-07-10T11:51:27;102491.50;;;21.98;76.68
28167;BME280;15455;53.376;-6.262;2022-07-10T11:54:17;102489.19;;;22.20;77.16
28167;BME280;15455;53.376;-6.262;2022-07-10T11:57:06;102498.63;;;22.35;73.23
28167;BME280;15455;53.376;-6.262;2022-07-10T11:59:53;102492.06;;;22.50;72.74
28167;BME280;15455;53.376;-6.262;2022-07-10T12:02:39;102492.81;;;22.55;69.24
28167;BME280;15455;53.376;-6.262;2022-07-10T12:05:35;102485.22;;;22.75;73.76
28167;BME280;15455;53.376;-6.262;2022-07-10T12:08:22;102485.66;;;22.92;72.56
28167;BME280;15455;53.376;-6.262;2022-07-10T12:11:13;102485.66;;;22.92;68.35
28167;BME280;15455;53.376;-6.262;2022-07-10T12:14:19;102481.63;;;23.12;67.63
28167;BME280;15455;53.376;-6.262;2022-07-10T12:17:11;102483.06;;;23.23;68.22
28167;BME280;15455;53.376;-6.262;2022-07-10T12:20:02;102476.50;;;23.35;65.44
28167;BME280;15455;53.376;-6.262;2022-07-10T12:22:48;102474.13;;;23.57;68.81
28167;BME280;15455;53.376;-6.262;2022-07-10T12:25:34;102468.66;;;23.62;64.72
28167;BME280;15455;53.376;-6.262;2022-07-10T12:28:19;102472.47;;;23.82;66.17
28167;BME280;15455;53.376;-6.262;2022-07-10T12:31:04;102468.25;;;24.04;64.71
28167;BME280;15455;53.376;-6.262;2022-07-10T12:33:56;102468.06;;;24.10;60.60
28167;BME280;15455;53.376;-6.262;2022-07-10T12:36:50;102464.75;;;24.04;61.01
28167;BME280;15455;53.376;-6.262;2022-07-10T12:39:45;102460.94;;;24.11;62.04
28167;BME280;15455;53.376;-6.262;2022-07-10T12:42:31;102461.56;;;24.19;58.48
28167;BME280;15455;53.376;-6.262;2022-07-10T12:45:17;102452.34;;;24.30;64.22
28167;BME280;15455;53.376;-6.262;2022-07-10T12:48:04;102455.78;;;24.33;59.32
28167;BME280;15455;53.376;-6.262;2022-07-10T12:50:51;102457.22;;;24.43;60.30
28167;BME280;15455;53.376;-6.262;2022-07-10T12:53:45;102453.78;;;24.67;59.00
28167;BME280;15455;53.376;-6.262;2022-07-10T12:56:34;102458.75;;;24.77;58.88
28167;BME280;15455;53.376;-6.262;2022-07-10T12:59:21;102453.19;;;24.84;56.74
28167;BME280;15455;53.376;-6.262;2022-07-10T13:02:33;102448.19;;;25.00;59.82
28167;BME280;15455;53.376;-6.262;2022-07-10T13:05:45;102459.72;;;25.00;56.58
28167;BME280;15455;53.376;-6.262;2022-07-10T13:08:44;102453.41;;;25.03;58.86
28167;BME280;15455;53.376;-6.262;2022-07-10T13:11:30;102448.91;;;25.05;59.29
28167;BME280;15455;53.376;-6.262;2022-07-10T13:14:15;102445.22;;;25.33;61.69
28167;BME280;15455;53.376;-6.262;2022-07-10T13:17:01;102442.97;;;25.20;56.31
28167;BME280;15455;53.376;-6.262;2022-07-10T13:19:46;102439.00;;;25.32;58.79
28167;BME280;15455;53.376;-6.262;2022-07-10T13:22:31;102439.91;;;25.55;59.75
28167;BME280;15455;53.376;-6.262;2022-07-10T13:25:17;102438.75;;;25.62;56.01
28167;BME280;15455;53.376;-6.262;2022-07-10T13:28:08;102444.81;;;25.67;59.38
28167;BME280;15455;53.376;-6.262;2022-07-10T13:30:54;102432.41;;;25.64;56.20
28167;BME280;15455;53.376;-6.262;2022-07-10T13:33:40;102430.19;;;25.76;55.94
28167;BME280;15455;53.376;-6.262;2022-07-10T13:36:25;102439.66;;;25.85;56.15
28167;BME280;15455;53.376;-6.262;2022-07-10T13:39:11;102435.03;;;25.88;58.23
28167;BME280;15455;53.376;-6.262;2022-07-10T13:41:56;102427.44;;;25.77;57.14
28167;BME280;15455;53.376;-6.262;2022-07-10T13:44:42;102440.75;;;25.79;56.95
28167;BME280;15455;53.376;-6.262;2022-07-10T13:47:28;102432.69;;;25.80;55.89
28167;BME280;15455;53.376;-6.262;2022-07-10T13:50:14;102433.78;;;25.75;58.65
28167;BME280;15455;53.376;-6.262;2022-07-10T13:53:00;102446.44;;;25.71;59.96
28167;BME280;15455;53.376;-6.262;2022-07-10T13:55:46;102441.34;;;25.63;58.30
28167;BME280;15455;53.376;-6.262;2022-07-10T13:58:32;102441.50;;;25.82;62.45
28167;BME280;15455;53.376;-6.262;2022-07-10T14:01:18;102438.94;;;26.03;59.45
28167;BME280;15455;53.376;-6.262;2022-07-10T14:04:04;102433.53;;;26.05;58.02
28167;BME280;15455;53.376;-6.262;2022-07-10T14:06:50;102436.34;;;26.02;56.12
28167;BME280;15455;53.376;-6.262;2022-07-10T14:09:35;102437.44;;;26.18;58.16
28167;BME280;15455;53.376;-6.262;2022-07-10T14:12:21;102435.69;;;26.17;55.37
28167;BME280;15455;53.376;-6.262;2022-07-10T14:15:07;102434.03;;;26.14;54.91
28167;BME280;15455;53.376;-6.262;2022-07-10T14:17:53;102434.81;;;26.16;55.30
28167;BME280;15455;53.376;-6.262;2022-07-10T14:20:40;102433.50;;;26.27;56.81